»·PEaware :: UAL515 KSFO-KLAX

UAL515 :: KSFO-KLAX

FLIGHT INFORMATION

Flight Status: Arrived
Operator:
United Airlines
More flights by this operator :: More flights under this callsign
Pilot: Doug L. (8712)
Aircraft: BOEING 757-200
(B752)
More flights by this aircraft type
Origin: KSFO San Francisco Intl
United States
Destination: KLAX Los Angeles Intl
United States
More flights between these airports :: More routes between these airports
Route: +SSTIK4 EBAYE BURGL IRNMN2
File this flight plan on PilotEdge
Remarks:
Altitude:
(Current/Filed)
31,000ft
Speed:
(Current/Filed)
465kts
Departed: 16-Aug-19 02:08 PM
Arrived: 16-Aug-19 03:04 PM
Distance/Time
Traveled:
293nm/0:56
Distance/Time
To Go:
Arrived

Flight Plot

Page will automatically refresh every two minutes.

Flight plan parsing failed; only flown route is shown


Map Options




Map Legend


Flown Route
Filed Route
Departure Airport
Arrival Airport
Navaid (VOR, NDB)
Fix

Horizontal Profiles

Position Reports

Time Latitude Longitude Heading Altitude Ground
Speed
16-Aug-19 13:40 37.618035 -122.384013 281 34ft 0kts
16-Aug-19 13:41 37.618035 -122.384013 281 34ft 0kts
16-Aug-19 13:42 37.618035 -122.384013 281 34ft 0kts
16-Aug-19 13:43 37.618035 -122.384013 281 34ft 0kts
16-Aug-19 13:43 37.618035 -122.384013 281 34ft 0kts
16-Aug-19 13:45 37.618035 -122.384013 281 34ft 0kts
16-Aug-19 13:46 37.618035 -122.384013 281 34ft 0kts
16-Aug-19 13:46 37.618035 -122.384013 281 34ft 0kts
16-Aug-19 13:47 37.618035 -122.384013 281 34ft 0kts
16-Aug-19 13:49 37.618035 -122.384013 281 34ft 0kts
16-Aug-19 13:49 37.618035 -122.384013 281 34ft 0kts
16-Aug-19 13:50 37.618035 -122.384013 281 34ft 0kts
16-Aug-19 13:51 37.618035 -122.384013 281 34ft 0kts
16-Aug-19 13:52 37.618035 -122.384013 281 34ft 0kts
16-Aug-19 13:53 37.618035 -122.384013 281 34ft 0kts
16-Aug-19 13:54 37.618035 -122.384013 281 34ft 0kts
16-Aug-19 13:55 37.617964 -122.383503 314 34ft 1kts
16-Aug-19 13:56 37.619031 -122.382856 29 34ft 0kts
16-Aug-19 13:57 37.619032 -122.382855 29 34ft 0kts
16-Aug-19 13:58 37.619032 -122.382855 29 34ft 0kts
16-Aug-19 13:59 37.619032 -122.382855 29 34ft 0kts
16-Aug-19 14:00 37.619116 -122.380729 118 34ft 20kts
16-Aug-19 14:01 37.614529 -122.381033 209 34ft 18kts
16-Aug-19 14:02 37.610799 -122.382817 165 34ft 8kts
16-Aug-19 14:03 37.609174 -122.383461 150 34ft 0kts
16-Aug-19 14:04 37.609174 -122.383461 150 34ft 0kts
16-Aug-19 14:05 37.609174 -122.383461 150 34ft 0kts
16-Aug-19 14:06 37.609124 -122.382106 27 33ft 12kts
16-Aug-19 14:07 37.637346 -122.363727 21 894ft 158kts
16-Aug-19 14:08 37.686103 -122.361818 335 1339ft 220kts
16-Aug-19 14:09 37.685903 -122.431594 208 3859ft 261kts
16-Aug-19 14:10 37.614044 -122.438718 189 6389ft 265kts
16-Aug-19 14:11 37.540453 -122.458078 193 8583ft 274kts
16-Aug-19 14:12 37.468654 -122.443882 134 10202ft 298kts
16-Aug-19 14:13 37.404010 -122.356779 133 10417ft 372kts
16-Aug-19 14:14 37.332440 -122.259537 133 12406ft 385kts
16-Aug-19 14:15 37.258891 -122.160163 133 14742ft 378kts
16-Aug-19 14:16 37.188276 -122.064909 133 16891ft 382kts
16-Aug-19 14:17 37.115459 -121.966347 132 19875ft 400kts
16-Aug-19 14:18 37.038018 -121.862216 133 22398ft 418kts
16-Aug-19 14:19 36.957446 -121.753862 133 24635ft 434kts
16-Aug-19 14:20 36.872955 -121.642117 135 26875ft 450kts
16-Aug-19 14:21 36.785740 -121.527069 135 28759ft 466kts
16-Aug-19 14:22 36.695501 -121.407758 135 30410ft 480kts
16-Aug-19 14:23 36.601944 -121.284525 136 31013ft 490kts
16-Aug-19 14:24 36.508501 -121.161873 136 31039ft 490kts
16-Aug-19 14:25 36.415963 -121.038989 133 31022ft 497kts
16-Aug-19 14:26 36.324722 -120.907566 133 30994ft 503kts
16-Aug-19 14:27 36.233108 -120.776380 133 30995ft 505kts
16-Aug-19 14:28 36.140972 -120.644974 133 30996ft 505kts
16-Aug-19 14:29 36.049276 -120.513252 133 30997ft 506kts
16-Aug-19 14:30 35.955924 -120.382314 134 30988ft 506kts
16-Aug-19 14:31 35.859510 -120.256057 147 31015ft 501kts
16-Aug-19 14:32 35.742575 -120.164453 152 31002ft 498kts
16-Aug-19 14:33 35.625278 -120.075877 152 30979ft 497kts
16-Aug-19 14:34 35.507520 -119.987047 152 30958ft 497kts
16-Aug-19 14:35 35.392235 -119.900433 152 31024ft 496kts
16-Aug-19 14:36 35.275606 -119.810460 146 31053ft 499kts
16-Aug-19 14:37 35.166145 -119.708232 145 29638ft 485kts
16-Aug-19 14:38 35.060449 -119.609984 145 27871ft 472kts
16-Aug-19 14:39 34.957241 -119.514185 144 25910ft 462kts
16-Aug-19 14:40 34.856489 -119.422616 144 23598ft 446kts
16-Aug-19 14:41 34.762271 -119.338387 145 22092ft 422kts
16-Aug-19 14:42 34.671083 -119.258422 145 20507ft 391kts
16-Aug-19 14:43 34.583638 -119.182797 146 18873ft 379kts
16-Aug-19 14:44 34.499427 -119.108699 145 17282ft 369kts
16-Aug-19 14:45 34.417101 -119.036320 145 15731ft 361kts
16-Aug-19 14:46 34.332567 -118.963158 145 13412ft 376kts
16-Aug-19 14:47 34.250679 -118.888387 143 12115ft 365kts
16-Aug-19 14:48 34.175542 -118.819366 143 11728ft 313kts
16-Aug-19 14:49 34.110892 -118.750931 138 10663ft 307kts
16-Aug-19 14:50 34.056793 -118.692140 139 9607ft 298kts
16-Aug-19 14:51 34.025074 -118.611759 97 8572ft 289kts
16-Aug-19 14:52 34.015600 -118.516693 96 7409ft 282kts
16-Aug-19 14:53 34.014995 -118.426610 77 6273ft 278kts
16-Aug-19 14:54 34.029122 -118.335505 83 4341ft 278kts
16-Aug-19 14:55 34.037112 -118.257308 83 4006ft 199kts
16-Aug-19 14:56 34.043378 -118.192814 95 3072ft 189kts
16-Aug-19 14:57 34.000353 -118.178247 191 2998ft 189kts
16-Aug-19 14:58 33.969127 -118.218431 267 3004ft 190kts
16-Aug-19 14:59 33.964458 -118.280625 263 2114ft 163kts
16-Aug-19 15:00 33.959890 -118.326233 263 1374ft 128kts
16-Aug-19 15:01 33.955553 -118.368572 263 711ft 126kts
16-Aug-19 15:02 33.951215 -118.410665 263 131ft 108kts
16-Aug-19 15:03 33.948582 -118.426682 223 122ft 14kts
16-Aug-19 15:04 33.946535 -118.425196 85 121ft 25kts
16-Aug-19 15:05 33.947254 -118.418163 83 128ft 24kts
16-Aug-19 15:06 33.947812 -118.413122 122 130ft 6kts
16-Aug-19 15:07 33.941806 -118.412140 173 129ft 25kts
16-Aug-19 15:08 33.938612 -118.409278 82 135ft 26kts
16-Aug-19 15:09 33.940378 -118.403096 353 129ft 11kts
16-Aug-19 15:10 33.941113 -118.403719 266 130ft 0kts

Navigation Log

Ident Type
Flight plan parsing failed, navigation log unavailable